sensor_id;sensor_type;location;lat;lon;timestamp;P1;durP1;ratioP1;P2;durP2;ratioP2
37641;SDS011;23486;51.956;5.888;2023-11-21T00:01:18;19.02;;;9.55;;
37641;SDS011;23486;51.956;5.888;2023-11-21T00:03:44;20.92;;;9.70;;
37641;SDS011;23486;51.956;5.888;2023-11-21T00:06:11;18.38;;;9.18;;
37641;SDS011;23486;51.956;5.888;2023-11-21T00:08:37;21.95;;;10.35;;
37641;SDS011;23486;51.956;5.888;2023-11-21T00:11:03;17.40;;;9.40;;
37641;SDS011;23486;51.956;5.888;2023-11-21T00:13:30;18.95;;;9.13;;
37641;SDS011;23486;51.956;5.888;2023-11-21T00:15:57;19.40;;;9.65;;
37641;SDS011;23486;51.956;5.888;2023-11-21T00:18:23;20.40;;;10.50;;
37641;SDS011;23486;51.956;5.888;2023-11-21T00:20:49;30.85;;;11.23;;
37641;SDS011;23486;51.956;5.888;2023-11-21T00:23:15;17.15;;;9.15;;
37641;SDS011;23486;51.956;5.888;2023-11-21T00:25:41;18.17;;;10.02;;
37641;SDS011;23486;51.956;5.888;2023-11-21T00:28:07;20.30;;;11.00;;
37641;SDS011;23486;51.956;5.888;2023-11-21T00:30:33;21.60;;;10.63;;
37641;SDS011;23486;51.956;5.888;2023-11-21T00:32:59;19.08;;;10.75;;
37641;SDS011;23486;51.956;5.888;2023-11-21T00:35:25;20.73;;;11.02;;
37641;SDS011;23486;51.956;5.888;2023-11-21T00:37:51;23.88;;;10.48;;
37641;SDS011;23486;51.956;5.888;2023-11-21T00:40:17;21.13;;;10.90;;
37641;SDS011;23486;51.956;5.888;2023-11-21T00:42:47;18.45;;;9.50;;
37641;SDS011;23486;51.956;5.888;2023-11-21T00:45:13;18.00;;;9.63;;
37641;SDS011;23486;51.956;5.888;2023-11-21T00:47:39;18.85;;;9.63;;
37641;SDS011;23486;51.956;5.888;2023-11-21T00:50:05;18.70;;;9.52;;
37641;SDS011;23486;51.956;5.888;2023-11-21T00:52:32;19.00;;;10.45;;
37641;SDS011;23486;51.956;5.888;2023-11-21T00:54:58;26.30;;;11.43;;
37641;SDS011;23486;51.956;5.888;2023-11-21T00:57:25;19.95;;;10.52;;
37641;SDS011;23486;51.956;5.888;2023-11-21T00:59:51;21.05;;;11.05;;
37641;SDS011;23486;51.956;5.888;2023-11-21T01:02:17;22.45;;;12.15;;
37641;SDS011;23486;51.956;5.888;2023-11-21T01:04:43;27.10;;;12.15;;
37641;SDS011;23486;51.956;5.888;2023-11-21T01:07:09;24.05;;;13.05;;
37641;SDS011;23486;51.956;5.888;2023-11-21T01:09:35;34.00;;;14.88;;
37641;SDS011;23486;51.956;5.888;2023-11-21T01:12:01;27.25;;;14.18;;
37641;SDS011;23486;51.956;5.888;2023-11-21T01:14:27;30.73;;;14.75;;
37641;SDS011;23486;51.956;5.888;2023-11-21T01:16:53;30.55;;;14.35;;
37641;SDS011;23486;51.956;5.888;2023-11-21T01:19:19;26.35;;;13.43;;
37641;SDS011;23486;51.956;5.888;2023-11-21T01:21:45;28.13;;;14.45;;
37641;SDS011;23486;51.956;5.888;2023-11-21T01:24:12;27.38;;;13.95;;
37641;SDS011;23486;51.956;5.888;2023-11-21T01:26:38;33.38;;;16.52;;
37641;SDS011;23486;51.956;5.888;2023-11-21T01:29:03;34.80;;;16.15;;
37641;SDS011;23486;51.956;5.888;2023-11-21T01:31:30;33.15;;;15.52;;
37641;SDS011;23486;51.956;5.888;2023-11-21T01:33:56;39.63;;;18.52;;
37641;SDS011;23486;51.956;5.888;2023-11-21T01:36:22;35.97;;;17.20;;
37641;SDS011;23486;51.956;5.888;2023-11-21T01:38:48;43.03;;;18.52;;
37641;SDS011;23486;51.956;5.888;2023-11-21T01:41:14;34.50;;;17.83;;
37641;SDS011;23486;51.956;5.888;2023-11-21T01:43:40;38.03;;;18.73;;
37641;SDS011;23486;51.956;5.888;2023-11-21T01:46:07;35.15;;;17.20;;
37641;SDS011;23486;51.956;5.888;2023-11-21T01:48:33;35.13;;;17.90;;
37641;SDS011;23486;51.956;5.888;2023-11-21T01:51:00;37.17;;;17.90;;
37641;SDS011;23486;51.956;5.888;2023-11-21T01:53:26;31.40;;;16.83;;
37641;SDS011;23486;51.956;5.888;2023-11-21T01:55:53;40.13;;;18.40;;
37641;SDS011;23486;51.956;5.888;2023-11-21T01:58:20;38.55;;;17.75;;
37641;SDS011;23486;51.956;5.888;2023-11-21T02:00:46;33.22;;;17.15;;
37641;SDS011;23486;51.956;5.888;2023-11-21T02:03:15;34.50;;;17.30;;
37641;SDS011;23486;51.956;5.888;2023-11-21T02:05:41;38.30;;;18.70;;
37641;SDS011;23486;51.956;5.888;2023-11-21T02:08:07;37.75;;;16.98;;
37641;SDS011;23486;51.956;5.888;2023-11-21T02:10:34;37.75;;;18.35;;
37641;SDS011;23486;51.956;5.888;2023-11-21T02:13:02;39.95;;;17.63;;
37641;SDS011;23486;51.956;5.888;2023-11-21T02:15:28;34.85;;;18.13;;
37641;SDS011;23486;51.956;5.888;2023-11-21T02:17:54;34.28;;;16.90;;
37641;SDS011;23486;51.956;5.888;2023-11-21T02:20:23;36.60;;;17.83;;
37641;SDS011;23486;51.956;5.888;2023-11-21T02:22:54;35.20;;;17.10;;
37641;SDS011;23486;51.956;5.888;2023-11-21T02:25:28;35.72;;;17.73;;
37641;SDS011;23486;51.956;5.888;2023-11-21T02:27:54;37.88;;;17.98;;
37641;SDS011;23486;51.956;5.888;2023-11-21T02:30:21;39.60;;;17.48;;
37641;SDS011;23486;51.956;5.888;2023-11-21T02:32:47;35.28;;;17.75;;
37641;SDS011;23486;51.956;5.888;2023-11-21T02:35:14;39.55;;;18.23;;
37641;SDS011;23486;51.956;5.888;2023-11-21T02:37:41;37.47;;;17.83;;
37641;SDS011;23486;51.956;5.888;2023-11-21T02:40:08;42.47;;;18.48;;
37641;SDS011;23486;51.956;5.888;2023-11-21T02:42:37;40.05;;;18.73;;
37641;SDS011;23486;51.956;5.888;2023-11-21T02:45:04;43.30;;;19.83;;
37641;SDS011;23486;51.956;5.888;2023-11-21T02:47:30;42.97;;;19.58;;
37641;SDS011;23486;51.956;5.888;2023-11-21T02:49:56;44.25;;;19.25;;
37641;SDS011;23486;51.956;5.888;2023-11-21T02:52:22;41.08;;;19.65;;
37641;SDS011;23486;51.956;5.888;2023-11-21T02:54:51;43.50;;;21.02;;
37641;SDS011;23486;51.956;5.888;2023-11-21T02:57:17;54.83;;;22.40;;
37641;SDS011;23486;51.956;5.888;2023-11-21T02:59:43;49.88;;;22.35;;
37641;SDS011;23486;51.956;5.888;2023-11-21T03:02:09;54.22;;;21.52;;
37641;SDS011;23486;51.956;5.888;2023-11-21T03:04:35;55.25;;;21.77;;
37641;SDS011;23486;51.956;5.888;2023-11-21T03:07:01;47.80;;;21.23;;
37641;SDS011;23486;51.956;5.888;2023-11-21T03:09:28;56.90;;;22.73;;
37641;SDS011;23486;51.956;5.888;2023-11-21T03:11:54;52.97;;;20.42;;
37641;SDS011;23486;51.956;5.888;2023-11-21T03:14:20;54.08;;;22.30;;
37641;SDS011;23486;51.956;5.888;2023-11-21T03:16:47;54.22;;;20.10;;
37641;SDS011;23486;51.956;5.888;2023-11-21T03:19:14;46.83;;;21.25;;
37641;SDS011;23486;51.956;5.888;2023-11-21T03:21:40;44.15;;;19.38;;
37641;SDS011;23486;51.956;5.888;2023-11-21T03:24:06;41.90;;;19.55;;
37641;SDS011;23486;51.956;5.888;2023-11-21T03:26:32;52.40;;;20.80;;
37641;SDS011;23486;51.956;5.888;2023-11-21T03:28:58;51.35;;;20.13;;
37641;SDS011;23486;51.956;5.888;2023-11-21T03:31:24;44.78;;;19.85;;
37641;SDS011;23486;51.956;5.888;2023-11-21T03:33:51;51.53;;;21.38;;
37641;SDS011;23486;51.956;5.888;2023-11-21T03:36:19;40.78;;;19.17;;
37641;SDS011;23486;51.956;5.888;2023-11-21T03:38:45;48.05;;;21.00;;
37641;SDS011;23486;51.956;5.888;2023-11-21T03:41:11;42.70;;;18.67;;
37641;SDS011;23486;51.956;5.888;2023-11-21T03:43:37;41.47;;;19.50;;
37641;SDS011;23486;51.956;5.888;2023-11-21T03:46:03;40.28;;;18.95;;
37641;SDS011;23486;51.956;5.888;2023-11-21T03:48:29;47.90;;;19.20;;
37641;SDS011;23486;51.956;5.888;2023-11-21T03:50:55;45.85;;;18.52;;
37641;SDS011;23486;51.956;5.888;2023-11-21T03:53:21;43.40;;;19.58;;
37641;SDS011;23486;51.956;5.888;2023-11-21T03:55:47;41.95;;;18.20;;
37641;SDS011;23486;51.956;5.888;2023-11-21T03:58:14;45.03;;;20.08;;
37641;SDS011;23486;51.956;5.888;2023-11-21T04:00:40;42.35;;;18.00;;
37641;SDS011;23486;51.956;5.888;2023-11-21T04:03:06;43.45;;;20.50;;
37641;SDS011;23486;51.956;5.888;2023-11-21T04:05:32;41.20;;;20.02;;
37641;SDS011;23486;51.956;5.888;2023-11-21T04:07:58;42.78;;;20.05;;
37641;SDS011;23486;51.956;5.888;2023-11-21T04:10:24;33.78;;;17.13;;
37641;SDS011;23486;51.956;5.888;2023-11-21T04:12:50;36.85;;;16.17;;
37641;SDS011;23486;51.956;5.888;2023-11-21T04:15:16;37.58;;;18.15;;
37641;SDS011;23486;51.956;5.888;2023-11-21T04:17:42;33.92;;;17.05;;
37641;SDS011;23486;51.956;5.888;2023-11-21T04:20:08;38.30;;;18.00;;
37641;SDS011;23486;51.956;5.888;2023-11-21T04:22:41;35.22;;;18.48;;
37641;SDS011;23486;51.956;5.888;2023-11-21T04:27:36;29.65;;;15.95;;
37641;SDS011;23486;51.956;5.888;2023-11-21T04:30:01;31.85;;;16.70;;
37641;SDS011;23486;51.956;5.888;2023-11-21T04:32:27;30.58;;;16.40;;
37641;SDS011;23486;51.956;5.888;2023-11-21T04:34:53;33.70;;;18.25;;
37641;SDS011;23486;51.956;5.888;2023-11-21T04:37:19;33.60;;;16.65;;
37641;SDS011;23486;51.956;5.888;2023-11-21T04:39:45;31.90;;;16.00;;
37641;SDS011;23486;51.956;5.888;2023-11-21T04:42:11;39.55;;;17.30;;
37641;SDS011;23486;51.956;5.888;2023-11-21T04:44:37;31.92;;;16.48;;
37641;SDS011;23486;51.956;5.888;2023-11-21T04:47:06;28.75;;;16.08;;
37641;SDS011;23486;51.956;5.888;2023-11-21T04:49:32;30.75;;;16.45;;
37641;SDS011;23486;51.956;5.888;2023-11-21T04:51:58;32.15;;;16.80;;
37641;SDS011;23486;51.956;5.888;2023-11-21T04:54:24;40.55;;;18.35;;
37641;SDS011;23486;51.956;5.888;2023-11-21T04:56:50;31.73;;;15.75;;
37641;SDS011;23486;51.956;5.888;2023-11-21T04:59:16;30.60;;;16.25;;
37641;SDS011;23486;51.956;5.888;2023-11-21T05:01:42;27.52;;;14.52;;
37641;SDS011;23486;51.956;5.888;2023-11-21T05:04:09;31.95;;;16.75;;
37641;SDS011;23486;51.956;5.888;2023-11-21T05:06:35;32.58;;;17.15;;
37641;SDS011;23486;51.956;5.888;2023-11-21T05:09:01;33.13;;;17.30;;
37641;SDS011;23486;51.956;5.888;2023-11-21T05:11:27;31.67;;;16.63;;
37641;SDS011;23486;51.956;5.888;2023-11-21T05:13:54;30.80;;;16.02;;
37641;SDS011;23486;51.956;5.888;2023-11-21T05:16:26;31.88;;;15.48;;
37641;SDS011;23486;51.956;5.888;2023-11-21T05:18:55;30.90;;;15.70;;
37641;SDS011;23486;51.956;5.888;2023-11-21T05:21:26;35.17;;;17.10;;
37641;SDS011;23486;51.956;5.888;2023-11-21T05:23:52;33.92;;;16.42;;
37641;SDS011;23486;51.956;5.888;2023-11-21T05:26:18;28.52;;;16.02;;
37641;SDS011;23486;51.956;5.888;2023-11-21T05:28:44;27.00;;;15.15;;
37641;SDS011;23486;51.956;5.888;2023-11-21T05:31:10;32.95;;;17.08;;
37641;SDS011;23486;51.956;5.888;2023-11-21T05:33:36;32.78;;;16.45;;
37641;SDS011;23486;51.956;5.888;2023-11-21T05:36:02;27.17;;;13.60;;
37641;SDS011;23486;51.956;5.888;2023-11-21T05:38:28;29.25;;;14.70;;
37641;SDS011;23486;51.956;5.888;2023-11-21T05:40:54;30.25;;;16.08;;
37641;SDS011;23486;51.956;5.888;2023-11-21T05:43:20;28.80;;;15.00;;
37641;SDS011;23486;51.956;5.888;2023-11-21T05:45:46;33.00;;;17.25;;
37641;SDS011;23486;51.956;5.888;2023-11-21T05:48:12;27.42;;;16.80;;
37641;SDS011;23486;51.956;5.888;2023-11-21T05:50:38;31.40;;;16.95;;
37641;SDS011;23486;51.956;5.888;2023-11-21T05:53:04;32.75;;;17.90;;
37641;SDS011;23486;51.956;5.888;2023-11-21T05:55:30;29.25;;;15.52;;
37641;SDS011;23486;51.956;5.888;2023-11-21T05:57:58;32.08;;;17.05;;
37641;SDS011;23486;51.956;5.888;2023-11-21T06:00:24;32.95;;;17.25;;
37641;SDS011;23486;51.956;5.888;2023-11-21T06:02:52;31.17;;;16.92;;
37641;SDS011;23486;51.956;5.888;2023-11-21T06:05:23;31.83;;;16.40;;
37641;SDS011;23486;51.956;5.888;2023-11-21T06:07:49;31.33;;;17.45;;
37641;SDS011;23486;51.956;5.888;2023-11-21T06:10:15;29.92;;;16.98;;
37641;SDS011;23486;51.956;5.888;2023-11-21T06:12:42;29.42;;;16.50;;
37641;SDS011;23486;51.956;5.888;2023-11-21T06:15:09;33.30;;;18.02;;
37641;SDS011;23486;51.956;5.888;2023-11-21T06:17:38;31.45;;;17.52;;
37641;SDS011;23486;51.956;5.888;2023-11-21T06:20:07;30.30;;;16.42;;
37641;SDS011;23486;51.956;5.888;2023-11-21T06:22:37;30.63;;;16.67;;
37641;SDS011;23486;51.956;5.888;2023-11-21T06:25:04;33.28;;;18.08;;
37641;SDS011;23486;51.956;5.888;2023-11-21T06:27:31;33.97;;;18.45;;
37641;SDS011;23486;51.956;5.888;2023-11-21T06:29:58;38.50;;;20.05;;
37641;SDS011;23486;51.956;5.888;2023-11-21T06:32:24;39.42;;;19.17;;
37641;SDS011;23486;51.956;5.888;2023-11-21T06:34:51;37.55;;;18.90;;
37641;SDS011;23486;51.956;5.888;2023-11-21T06:37:19;35.63;;;18.85;;
37641;SDS011;23486;51.956;5.888;2023-11-21T06:39:48;38.00;;;19.60;;
37641;SDS011;23486;51.956;5.888;2023-11-21T06:42:14;34.03;;;18.92;;
37641;SDS011;23486;51.956;5.888;2023-11-21T06:44:40;44.67;;;20.52;;
37641;SDS011;23486;51.956;5.888;2023-11-21T06:47:06;34.75;;;20.25;;
37641;SDS011;23486;51.956;5.888;2023-11-21T06:49:32;36.20;;;19.67;;
37641;SDS011;23486;51.956;5.888;2023-11-21T06:51:58;41.60;;;19.98;;
37641;SDS011;23486;51.956;5.888;2023-11-21T06:54:26;38.67;;;19.45;;
37641;SDS011;23486;51.956;5.888;2023-11-21T06:56:52;42.95;;;21.52;;
37641;SDS011;23486;51.956;5.888;2023-11-21T06:59:18;41.30;;;20.90;;
37641;SDS011;23486;51.956;5.888;2023-11-21T07:01:44;37.85;;;20.63;;
37641;SDS011;23486;51.956;5.888;2023-11-21T07:04:10;43.22;;;20.88;;
37641;SDS011;23486;51.956;5.888;2023-11-21T07:06:36;37.00;;;20.90;;
37641;SDS011;23486;51.956;5.888;2023-11-21T07:09:02;40.28;;;20.38;;
37641;SDS011;23486;51.956;5.888;2023-11-21T07:11:28;41.67;;;22.48;;
37641;SDS011;23486;51.956;5.888;2023-11-21T07:13:54;38.85;;;20.75;;
37641;SDS011;23486;51.956;5.888;2023-11-21T07:16:21;37.28;;;21.38;;
37641;SDS011;23486;51.956;5.888;2023-11-21T07:18:48;40.50;;;21.90;;
37641;SDS011;23486;51.956;5.888;2023-11-21T07:21:14;37.70;;;20.75;;
37641;SDS011;23486;51.956;5.888;2023-11-21T07:23:41;39.47;;;21.92;;
37641;SDS011;23486;51.956;5.888;2023-11-21T07:26:07;43.92;;;21.10;;
37641;SDS011;23486;51.956;5.888;2023-11-21T07:28:35;43.28;;;23.23;;
37641;SDS011;23486;51.956;5.888;2023-11-21T07:31:01;42.40;;;20.83;;
37641;SDS011;23486;51.956;5.888;2023-11-21T07:33:28;42.97;;;21.33;;
37641;SDS011;23486;51.956;5.888;2023-11-21T07:35:54;43.63;;;23.20;;
37641;SDS011;23486;51.956;5.888;2023-11-21T07:38:20;46.80;;;23.13;;
37641;SDS011;23486;51.956;5.888;2023-11-21T07:40:46;48.97;;;24.50;;
37641;SDS011;23486;51.956;5.888;2023-11-21T07:43:12;49.20;;;25.65;;
37641;SDS011;23486;51.956;5.888;2023-11-21T07:45:38;49.83;;;24.08;;
37641;SDS011;23486;51.956;5.888;2023-11-21T07:48:04;47.95;;;23.60;;
37641;SDS011;23486;51.956;5.888;2023-11-21T07:50:31;47.53;;;23.23;;
37641;SDS011;23486;51.956;5.888;2023-11-21T07:52:58;45.50;;;24.33;;
37641;SDS011;23486;51.956;5.888;2023-11-21T07:55:24;50.15;;;24.95;;
37641;SDS011;23486;51.956;5.888;2023-11-21T07:57:50;48.95;;;24.33;;
37641;SDS011;23486;51.956;5.888;2023-11-21T08:00:16;47.70;;;24.08;;
37641;SDS011;23486;51.956;5.888;2023-11-21T08:02:42;44.28;;;23.73;;
37641;SDS011;23486;51.956;5.888;2023-11-21T08:05:11;47.72;;;24.48;;
37641;SDS011;23486;51.956;5.888;2023-11-21T08:07:37;42.38;;;23.00;;
37641;SDS011;23486;51.956;5.888;2023-11-21T08:10:03;44.65;;;21.52;;
37641;SDS011;23486;51.956;5.888;2023-11-21T08:12:30;40.50;;;22.92;;
37641;SDS011;23486;51.956;5.888;2023-11-21T08:14:56;40.47;;;21.50;;
37641;SDS011;23486;51.956;5.888;2023-11-21T08:17:22;43.35;;;21.83;;
37641;SDS011;23486;51.956;5.888;2023-11-21T08:19:48;44.60;;;24.42;;
37641;SDS011;23486;51.956;5.888;2023-11-21T08:22:16;42.50;;;21.38;;
37641;SDS011;23486;51.956;5.888;2023-11-21T08:24:43;41.80;;;20.88;;
37641;SDS011;23486;51.956;5.888;2023-11-21T08:27:09;37.83;;;21.10;;
37641;SDS011;23486;51.956;5.888;2023-11-21T08:29:35;43.83;;;22.70;;
37641;SDS011;23486;51.956;5.888;2023-11-21T08:32:03;42.20;;;22.55;;
37641;SDS011;23486;51.956;5.888;2023-11-21T08:34:30;40.65;;;21.90;;
37641;SDS011;23486;51.956;5.888;2023-11-21T08:36:59;38.90;;;21.60;;
37641;SDS011;23486;51.956;5.888;2023-11-21T08:39:25;44.75;;;22.17;;
37641;SDS011;23486;51.956;5.888;2023-11-21T08:41:51;43.22;;;21.58;;
37641;SDS011;23486;51.956;5.888;2023-11-21T08:44:17;46.30;;;23.02;;
37641;SDS011;23486;51.956;5.888;2023-11-21T08:46:44;46.13;;;23.33;;
37641;SDS011;23486;51.956;5.888;2023-11-21T08:49:11;47.17;;;23.40;;
37641;SDS011;23486;51.956;5.888;2023-11-21T08:51:38;49.00;;;24.98;;
37641;SDS011;23486;51.956;5.888;2023-11-21T08:54:04;45.83;;;23.00;;
37641;SDS011;23486;51.956;5.888;2023-11-21T08:56:33;45.75;;;22.65;;
37641;SDS011;23486;51.956;5.888;2023-11-21T08:58:59;47.65;;;21.63;;
37641;SDS011;23486;51.956;5.888;2023-11-21T09:01:28;56.08;;;25.13;;
37641;SDS011;23486;51.956;5.888;2023-11-21T09:03:58;45.40;;;22.40;;
37641;SDS011;23486;51.956;5.888;2023-11-21T09:06:24;49.20;;;25.05;;
37641;SDS011;23486;51.956;5.888;2023-11-21T09:08:50;44.38;;;24.42;;
37641;SDS011;23486;51.956;5.888;2023-11-21T09:11:16;51.33;;;25.02;;
37641;SDS011;23486;51.956;5.888;2023-11-21T09:13:43;44.35;;;23.45;;
37641;SDS011;23486;51.956;5.888;2023-11-21T09:16:09;56.92;;;27.02;;
37641;SDS011;23486;51.956;5.888;2023-11-21T09:18:35;52.45;;;25.10;;
37641;SDS011;23486;51.956;5.888;2023-11-21T09:21:01;47.85;;;22.92;;
37641;SDS011;23486;51.956;5.888;2023-11-21T09:23:29;46.47;;;23.23;;
37641;SDS011;23486;51.956;5.888;2023-11-21T09:25:55;50.25;;;24.30;;
37641;SDS011;23486;51.956;5.888;2023-11-21T09:28:21;47.50;;;24.42;;
37641;SDS011;23486;51.956;5.888;2023-11-21T09:30:47;50.95;;;24.42;;
37641;SDS011;23486;51.956;5.888;2023-11-21T09:33:15;48.88;;;24.25;;
37641;SDS011;23486;51.956;5.888;2023-11-21T09:35:41;53.33;;;25.15;;
37641;SDS011;23486;51.956;5.888;2023-11-21T09:38:08;56.05;;;23.75;;
37641;SDS011;23486;51.956;5.888;2023-11-21T09:40:35;52.45;;;23.35;;
37641;SDS011;23486;51.956;5.888;2023-11-21T09:43:06;54.10;;;24.85;;
37641;SDS011;23486;51.956;5.888;2023-11-21T09:45:41;47.20;;;23.23;;
37641;SDS011;23486;51.956;5.888;2023-11-21T09:48:10;56.00;;;26.65;;
37641;SDS011;23486;51.956;5.888;2023-11-21T09:50:39;60.92;;;26.35;;
37641;SDS011;23486;51.956;5.888;2023-11-21T09:53:10;55.95;;;25.45;;
37641;SDS011;23486;51.956;5.888;2023-11-21T09:55:48;56.92;;;25.55;;
37641;SDS011;23486;51.956;5.888;2023-11-21T09:58:15;59.05;;;26.75;;
37641;SDS011;23486;51.956;5.888;2023-11-21T10:00:42;60.63;;;27.08;;
37641;SDS011;23486;51.956;5.888;2023-11-21T10:03:09;63.58;;;27.63;;
37641;SDS011;23486;51.956;5.888;2023-11-21T10:05:35;67.13;;;29.58;;
37641;SDS011;23486;51.956;5.888;2023-11-21T10:08:02;64.45;;;29.25;;
37641;SDS011;23486;51.956;5.888;2023-11-21T10:10:31;59.88;;;27.75;;
37641;SDS011;23486;51.956;5.888;2023-11-21T10:13:00;60.00;;;27.75;;
37641;SDS011;23486;51.956;5.888;2023-11-21T10:15:28;60.78;;;27.30;;
37641;SDS011;23486;51.956;5.888;2023-11-21T10:17:55;61.78;;;27.50;;
37641;SDS011;23486;51.956;5.888;2023-11-21T10:20:21;61.53;;;27.92;;
37641;SDS011;23486;51.956;5.888;2023-11-21T10:22:49;63.40;;;29.35;;
37641;SDS011;23486;51.956;5.888;2023-11-21T10:25:15;56.17;;;26.23;;
37641;SDS011;23486;51.956;5.888;2023-11-21T10:27:45;63.97;;;28.40;;
37641;SDS011;23486;51.956;5.888;2023-11-21T10:30:12;62.53;;;27.48;;
37641;SDS011;23486;51.956;5.888;2023-11-21T10:32:38;56.75;;;27.27;;
37641;SDS011;23486;51.956;5.888;2023-11-21T10:35:05;63.53;;;26.45;;
37641;SDS011;23486;51.956;5.888;2023-11-21T10:37:35;54.47;;;25.05;;
37641;SDS011;23486;51.956;5.888;2023-11-21T10:40:04;50.50;;;24.77;;
37641;SDS011;23486;51.956;5.888;2023-11-21T10:42:31;52.22;;;25.33;;
37641;SDS011;23486;51.956;5.888;2023-11-21T10:44:57;51.75;;;23.70;;
37641;SDS011;23486;51.956;5.888;2023-11-21T10:47:23;48.05;;;23.60;;
37641;SDS011;23486;51.956;5.888;2023-11-21T10:49:49;39.22;;;20.75;;
37641;SDS011;23486;51.956;5.888;2023-11-21T10:52:15;44.20;;;22.17;;
37641;SDS011;23486;51.956;5.888;2023-11-21T10:54:45;41.08;;;19.42;;
37641;SDS011;23486;51.956;5.888;2023-11-21T10:57:13;43.88;;;20.30;;
37641;SDS011;23486;51.956;5.888;2023-11-21T10:59:40;44.35;;;20.13;;
37641;SDS011;23486;51.956;5.888;2023-11-21T11:02:21;38.78;;;18.13;;
37641;SDS011;23486;51.956;5.888;2023-11-21T11:04:50;39.17;;;17.20;;
37641;SDS011;23486;51.956;5.888;2023-11-21T11:07:18;35.63;;;17.92;;
37641;SDS011;23486;51.956;5.888;2023-11-21T11:09:45;37.17;;;18.30;;
37641;SDS011;23486;51.956;5.888;2023-11-21T11:12:12;34.63;;;16.52;;
37641;SDS011;23486;51.956;5.888;2023-11-21T11:14:40;33.72;;;17.05;;
37641;SDS011;23486;51.956;5.888;2023-11-21T11:17:06;34.42;;;17.27;;
37641;SDS011;23486;51.956;5.888;2023-11-21T11:19:33;36.13;;;17.63;;
37641;SDS011;23486;51.956;5.888;2023-11-21T11:22:35;38.20;;;19.58;;
37641;SDS011;23486;51.956;5.888;2023-11-21T11:25:30;37.28;;;17.13;;
37641;SDS011;23486;51.956;5.888;2023-11-21T11:30:28;35.35;;;17.27;;
37641;SDS011;23486;51.956;5.888;2023-11-21T11:33:08;38.22;;;17.90;;
37641;SDS011;23486;51.956;5.888;2023-11-21T11:38:23;36.60;;;16.80;;
37641;SDS011;23486;51.956;5.888;2023-11-21T11:40:54;35.38;;;16.75;;
37641;SDS011;23486;51.956;5.888;2023-11-21T11:43:26;30.73;;;15.02;;
37641;SDS011;23486;51.956;5.888;2023-11-21T11:45:55;30.40;;;14.65;;
37641;SDS011;23486;51.956;5.888;2023-11-21T11:48:22;30.00;;;14.00;;
37641;SDS011;23486;51.956;5.888;2023-11-21T11:53:43;26.55;;;11.95;;
37641;SDS011;23486;51.956;5.888;2023-11-21T11:56:26;23.88;;;10.77;;
37641;SDS011;23486;51.956;5.888;2023-11-21T11:58:54;24.80;;;12.38;;
37641;SDS011;23486;51.956;5.888;2023-11-21T12:01:21;25.25;;;13.18;;
37641;SDS011;23486;51.956;5.888;2023-11-21T12:04:22;23.42;;;12.23;;
37641;SDS011;23486;51.956;5.888;2023-11-21T12:06:36;29.80;;;14.10;;
37641;SDS011;23486;51.956;5.888;2023-11-21T12:09:02;24.92;;;12.52;;
37641;SDS011;23486;51.956;5.888;2023-11-21T12:11:32;23.13;;;12.27;;
37641;SDS011;23486;51.956;5.888;2023-11-21T12:14:00;25.00;;;13.07;;
37641;SDS011;23486;51.956;5.888;2023-11-21T12:16:26;23.83;;;13.52;;
37641;SDS011;23486;51.956;5.888;2023-11-21T12:18:52;23.52;;;12.75;;
37641;SDS011;23486;51.956;5.888;2023-11-21T12:21:19;25.52;;;13.43;;
37641;SDS011;23486;51.956;5.888;2023-11-21T12:23:45;23.40;;;11.98;;
37641;SDS011;23486;51.956;5.888;2023-11-21T12:26:12;18.55;;;9.40;;
37641;SDS011;23486;51.956;5.888;2023-11-21T12:28:38;19.77;;;10.80;;
37641;SDS011;23486;51.956;5.888;2023-11-21T12:31:05;21.52;;;11.38;;
37641;SDS011;23486;51.956;5.888;2023-11-21T12:33:35;20.13;;;10.00;;
37641;SDS011;23486;51.956;5.888;2023-11-21T12:36:01;21.63;;;10.95;;
37641;SDS011;23486;51.956;5.888;2023-11-21T12:38:34;23.23;;;10.27;;
37641;SDS011;23486;51.956;5.888;2023-11-21T12:41:00;28.55;;;14.52;;
37641;SDS011;23486;51.956;5.888;2023-11-21T12:43:26;26.30;;;14.15;;
37641;SDS011;23486;51.956;5.888;2023-11-21T12:46:04;26.67;;;14.63;;
37641;SDS011;23486;51.956;5.888;2023-11-21T12:48:31;24.75;;;14.05;;
37641;SDS011;23486;51.956;5.888;2023-11-21T12:50:57;29.80;;;14.55;;
37641;SDS011;23486;51.956;5.888;2023-11-21T12:53:25;25.02;;;13.13;;
37641;SDS011;23486;51.956;5.888;2023-11-21T12:55:58;22.30;;;11.80;;
37641;SDS011;23486;51.956;5.888;2023-11-21T12:58:24;22.67;;;12.02;;
37641;SDS011;23486;51.956;5.888;2023-11-21T13:00:50;23.63;;;13.68;;
37641;SDS011;23486;51.956;5.888;2023-11-21T13:03:19;25.63;;;14.13;;
37641;SDS011;23486;51.956;5.888;2023-11-21T13:05:50;25.50;;;13.77;;
37641;SDS011;23486;51.956;5.888;2023-11-21T13:08:18;28.85;;;14.55;;
37641;SDS011;23486;51.956;5.888;2023-11-21T13:10:46;29.45;;;16.42;;
37641;SDS011;23486;51.956;5.888;2023-11-21T13:13:12;30.00;;;15.95;;
37641;SDS011;23486;51.956;5.888;2023-11-21T13:15:52;33.75;;;18.17;;
37641;SDS011;23486;51.956;5.888;2023-11-21T13:18:22;31.60;;;18.30;;
37641;SDS011;23486;51.956;5.888;2023-11-21T13:20:48;37.25;;;18.05;;
37641;SDS011;23486;51.956;5.888;2023-11-21T13:23:15;31.42;;;15.93;;
37641;SDS011;23486;51.956;5.888;2023-11-21T13:25:41;35.78;;;17.25;;
37641;SDS011;23486;51.956;5.888;2023-11-21T13:28:07;38.78;;;16.95;;
37641;SDS011;23486;51.956;5.888;2023-11-21T13:30:34;33.53;;;17.88;;
37641;SDS011;23486;51.956;5.888;2023-11-21T13:33:01;31.60;;;17.58;;
37641;SDS011;23486;51.956;5.888;2023-11-21T13:35:28;35.08;;;17.33;;
37641;SDS011;23486;51.956;5.888;2023-11-21T13:38:07;35.08;;;16.75;;
37641;SDS011;23486;51.956;5.888;2023-11-21T13:40:34;33.03;;;17.42;;
37641;SDS011;23486;51.956;5.888;2023-11-21T13:45:35;34.25;;;17.15;;
37641;SDS011;23486;51.956;5.888;2023-11-21T13:48:01;34.17;;;16.90;;
37641;SDS011;23486;51.956;5.888;2023-11-21T13:50:30;29.85;;;14.98;;
37641;SDS011;23486;51.956;5.888;2023-11-21T13:53:00;31.02;;;16.02;;
37641;SDS011;23486;51.956;5.888;2023-11-21T13:55:33;32.65;;;16.70;;
37641;SDS011;23486;51.956;5.888;2023-11-21T13:58:00;32.08;;;14.68;;
37641;SDS011;23486;51.956;5.888;2023-11-21T14:03:20;25.17;;;13.68;;
37641;SDS011;23486;51.956;5.888;2023-11-21T14:05:50;27.10;;;13.75;;
37641;SDS011;23486;51.956;5.888;2023-11-21T14:10:48;27.45;;;12.43;;
37641;SDS011;23486;51.956;5.888;2023-11-21T14:13:18;25.60;;;12.27;;
37641;SDS011;23486;51.956;5.888;2023-11-21T14:15:48;26.23;;;12.55;;
37641;SDS011;23486;51.956;5.888;2023-11-21T14:18:17;27.77;;;11.95;;
37641;SDS011;23486;51.956;5.888;2023-11-21T14:20:52;25.23;;;11.23;;
37641;SDS011;23486;51.956;5.888;2023-11-21T14:23:18;24.05;;;9.88;;
37641;SDS011;23486;51.956;5.888;2023-11-21T14:25:46;21.33;;;10.18;;
37641;SDS011;23486;51.956;5.888;2023-11-21T14:28:13;20.60;;;9.95;;
37641;SDS011;23486;51.956;5.888;2023-11-21T14:30:39;22.60;;;11.38;;
37641;SDS011;23486;51.956;5.888;2023-11-21T14:33:07;19.73;;;9.93;;
37641;SDS011;23486;51.956;5.888;2023-11-21T14:35:34;22.83;;;10.77;;
37641;SDS011;23486;51.956;5.888;2023-11-21T14:38:01;17.85;;;9.70;;
37641;SDS011;23486;51.956;5.888;2023-11-21T14:40:29;22.95;;;10.43;;